createdAt,value
2022-11-05T00:06:09.440Z,2.55
2022-11-05T00:09:13.324Z,2.70
2022-11-05T00:12:27.107Z,2.87
2022-11-05T00:15:31.029Z,3.08
2022-11-05T00:18:16.264Z,2.80
2022-11-05T00:21:01.682Z,2.83
2022-11-05T00:24:05.377Z,2.80
2022-11-05T00:29:36.092Z,2.77
2022-11-05T00:32:21.323Z,2.90
2022-11-05T00:35:07.532Z,2.93
2022-11-05T00:37:54.059Z,3.27
2022-11-05T00:40:39.424Z,3.00
2022-11-05T00:43:43.102Z,2.80
2022-11-05T00:46:28.292Z,2.97
2022-11-05T00:49:45.857Z,3.63
2022-11-05T00:52:49.677Z,3.13
2022-11-05T00:55:34.907Z,3.03
2022-11-05T00:58:21.948Z,3.70
2022-11-05T01:01:07.459Z,3.40
2022-11-05T01:03:52.753Z,3.10
2022-11-05T01:06:38.021Z,3.10
2022-11-05T01:09:23.173Z,2.77
2022-11-05T01:12:08.393Z,3.20
2022-11-05T01:14:53.631Z,2.67
2022-11-05T01:17:38.903Z,2.90
2022-11-05T01:20:24.470Z,3.00
2022-11-05T01:23:13.488Z,2.93
2022-11-05T01:25:59.438Z,2.80
2022-11-05T01:28:44.903Z,2.50
2022-11-05T01:31:30.038Z,2.20
2022-11-05T01:34:15.283Z,2.30
2022-11-05T01:37:01.138Z,2.30
2022-11-05T01:39:46.497Z,2.37
2022-11-05T01:42:33.498Z,2.40
2022-11-05T01:45:20.654Z,2.17
2022-11-05T01:48:17.019Z,2.20
2022-11-05T01:51:10.340Z,2.20
2022-11-05T01:54:02.835Z,2.03
2022-11-05T01:56:57.882Z,2.13
2022-11-05T01:59:49.298Z,1.90
2022-11-05T02:02:35.006Z,2.13
2022-11-05T02:05:20.190Z,2.13
2022-11-05T02:08:05.950Z,2.10
2022-11-05T02:10:51.951Z,1.80
2022-11-05T02:13:37.340Z,2.10
2022-11-05T02:16:43.664Z,1.87
2022-11-05T02:19:40.941Z,1.90
2022-11-05T02:22:41.519Z,2.03
2022-11-05T02:25:54.930Z,2.43
2022-11-05T02:29:26.453Z,2.05
2022-11-05T02:32:29.399Z,2.00
2022-11-05T02:35:37.453Z,1.95
2022-11-05T02:38:31.851Z,1.90
2022-11-05T02:42:04.964Z,1.73
2022-11-05T02:45:03.419Z,1.70
2022-11-05T02:48:04.097Z,1.73
2022-11-05T02:50:57.861Z,1.67
2022-11-05T02:54:01.945Z,1.70
2022-11-05T02:56:51.742Z,1.80
2022-11-05T02:59:36.880Z,1.80
2022-11-05T03:02:22.084Z,1.80
2022-11-05T03:05:07.415Z,1.87
2022-11-05T03:08:00.314Z,1.70
2022-11-05T03:11:17.706Z,2.00
2022-11-05T03:14:24.545Z,1.60
2022-11-05T03:17:27.951Z,1.70
2022-11-05T03:20:25.288Z,1.60
2022-11-05T03:23:33.811Z,1.90
2022-11-05T03:26:22.002Z,1.70
2022-11-05T03:29:16.571Z,1.73
2022-11-05T03:32:04.499Z,1.40
2022-11-05T03:34:59.939Z,1.70
2022-11-05T03:37:49.053Z,1.60
2022-11-05T03:40:37.762Z,1.67
2022-11-05T03:43:28.961Z,1.60
2022-11-05T03:46:27.878Z,1.60
2022-11-05T03:49:24.271Z,1.80
2022-11-05T03:52:18.469Z,1.23
2022-11-05T03:55:04.447Z,1.53
2022-11-05T03:57:54.003Z,1.60
2022-11-05T04:00:39.341Z,1.40
2022-11-05T04:03:24.781Z,1.70
2022-11-05T04:06:29.029Z,1.60
2022-11-05T04:09:32.922Z,1.60
2022-11-05T04:12:36.995Z,1.67
2022-11-05T04:18:07.548Z,1.50
2022-11-05T04:21:11.420Z,1.60
2022-11-05T04:24:08.972Z,1.70
2022-11-05T04:26:54.521Z,1.87
2022-11-05T04:29:58.379Z,1.40
2022-11-05T04:32:54.569Z,1.65
2022-11-05T04:35:42.261Z,1.40
2022-11-05T04:38:27.421Z,1.63
2022-11-05T04:41:15.165Z,1.57
2022-11-05T04:44:00.652Z,1.60
2022-11-05T04:46:45.746Z,1.77
2022-11-05T04:49:31.134Z,1.47
2022-11-05T04:52:17.938Z,1.40
2022-11-05T04:55:04.593Z,1.70
2022-11-05T04:57:51.756Z,1.70
2022-11-05T05:00:37.429Z,1.47
2022-11-05T05:03:22.603Z,1.80
2022-11-05T05:06:08.472Z,1.50
2022-11-05T05:08:53.742Z,1.80
2022-11-05T05:11:39.140Z,1.60
2022-11-05T05:14:24.343Z,1.70
2022-11-05T05:17:09.870Z,1.43
2022-11-05T05:20:14.016Z,1.53
2022-11-05T05:22:59.272Z,1.63
2022-11-05T05:25:44.837Z,1.77
2022-11-05T05:28:29.914Z,1.60
2022-11-05T05:31:15.309Z,1.90
2022-11-05T05:34:00.576Z,1.60
2022-11-05T05:36:45.968Z,1.50
2022-11-05T05:39:31.225Z,1.63
2022-11-05T05:42:16.575Z,1.60
2022-11-05T05:45:01.890Z,1.67
2022-11-05T05:47:47.033Z,1.23
2022-11-05T05:50:32.114Z,1.50
2022-11-05T05:53:25.526Z,1.60
2022-11-05T05:56:11.162Z,1.50
2022-11-05T05:58:56.591Z,1.43
2022-11-05T06:01:42.160Z,1.60
2022-11-05T06:04:27.667Z,1.50
2022-11-05T06:07:13.338Z,1.40
2022-11-05T06:09:58.786Z,1.60
2022-11-05T06:12:44.055Z,1.70
2022-11-05T06:15:34.591Z,1.67
2022-11-05T06:18:21.278Z,1.60
2022-11-05T06:21:12.226Z,1.40
2022-11-05T06:23:57.406Z,1.90
2022-11-05T06:26:43.477Z,2.40
2022-11-05T06:29:28.977Z,2.50
2022-11-05T06:32:14.178Z,2.10
2022-11-05T06:34:59.683Z,2.07
2022-11-05T06:37:44.951Z,2.10
2022-11-05T06:40:30.305Z,2.97
2022-11-05T06:43:15.725Z,4.80
2022-11-05T06:46:02.879Z,8.33
2022-11-05T06:48:48.561Z,7.07
2022-11-05T06:51:33.810Z,5.83
2022-11-05T06:54:19.356Z,5.60
2022-11-05T06:57:06.157Z,5.50
2022-11-05T06:59:53.559Z,5.00
2022-11-05T07:02:42.733Z,4.77
2022-11-05T07:05:28.094Z,4.63
2022-11-05T07:08:13.782Z,5.20
2022-11-05T07:10:59.673Z,4.60
2022-11-05T07:13:46.335Z,4.50
2022-11-05T07:16:31.612Z,4.00
2022-11-05T07:19:17.242Z,3.80
2022-11-05T07:22:02.494Z,3.90
2022-11-05T07:24:50.077Z,3.60
2022-11-05T07:27:40.379Z,3.77
2022-11-05T07:30:26.634Z,3.53
2022-11-05T07:33:12.167Z,3.13
2022-11-05T07:35:58.071Z,3.50
2022-11-05T07:38:48.372Z,3.67
2022-11-05T07:41:35.569Z,3.00
2022-11-05T07:44:21.975Z,2.93
2022-11-05T07:47:08.086Z,3.17
2022-11-05T07:49:53.545Z,3.10
2022-11-05T07:52:39.389Z,3.23
2022-11-05T07:55:25.295Z,3.17
2022-11-05T07:58:12.000Z,3.17
2022-11-05T08:00:57.984Z,3.13
2022-11-05T08:03:43.481Z,2.57
2022-11-05T08:06:28.818Z,3.27
2022-11-05T08:09:14.222Z,2.80
2022-11-05T08:12:02.830Z,2.90
2022-11-05T08:14:48.778Z,2.23
2022-11-05T08:17:35.736Z,3.27
2022-11-05T08:20:21.316Z,2.70
2022-11-05T08:23:06.569Z,3.30
2022-11-05T08:25:52.213Z,2.87
2022-11-05T08:28:37.622Z,3.27
2022-11-05T08:31:22.864Z,2.77
2022-11-05T08:34:08.071Z,3.00
2022-11-05T08:36:53.452Z,3.37
2022-11-05T08:39:38.786Z,3.30
2022-11-05T08:42:24.033Z,3.40
2022-11-05T08:45:09.824Z,2.83
2022-11-05T08:48:02.884Z,3.00
2022-11-05T08:50:49.981Z,3.03
2022-11-05T08:53:35.049Z,3.33
2022-11-05T08:56:20.344Z,3.37
2022-11-05T08:59:06.112Z,3.50
2022-11-05T09:01:53.106Z,3.93
2022-11-05T09:04:38.558Z,4.00
2022-11-05T09:07:23.782Z,3.70
2022-11-05T09:10:09.412Z,3.40
2022-11-05T09:12:54.923Z,3.33
2022-11-05T09:15:41.135Z,3.60
2022-11-05T09:18:26.489Z,3.30
2022-11-05T09:21:12.186Z,3.90
2022-11-05T09:23:58.215Z,4.47
2022-11-05T09:26:44.256Z,4.13
2022-11-05T09:29:29.899Z,4.40
2022-11-05T09:32:19.391Z,4.33
2022-11-05T09:35:06.268Z,4.53
2022-11-05T09:37:54.521Z,3.90
2022-11-05T09:41:16.363Z,4.53
2022-11-05T09:44:23.848Z,4.07
2022-11-05T09:47:17.957Z,4.00
2022-11-05T09:50:09.535Z,3.67
2022-11-05T09:52:54.629Z,5.60
2022-11-05T09:55:42.632Z,3.90
2022-11-05T09:58:39.165Z,4.90
2022-11-05T10:01:30.893Z,4.07
2022-11-05T10:04:23.726Z,4.70
2022-11-05T10:07:14.482Z,4.50
2022-11-05T10:10:03.684Z,3.93
2022-11-05T10:12:57.057Z,4.30
2022-11-05T10:18:44.411Z,3.97
2022-11-05T10:21:59.374Z,4.30
2022-11-05T10:24:37.728Z,3.97
2022-11-05T10:27:28.053Z,3.77
2022-11-05T10:30:15.104Z,4.23
2022-11-05T10:33:03.840Z,3.90
2022-11-05T10:35:57.809Z,3.63
2022-11-05T10:38:43.400Z,3.93
2022-11-05T10:41:43.149Z,3.57
2022-11-05T10:44:41.828Z,3.63
2022-11-05T10:47:40.270Z,3.80
2022-11-05T10:50:28.259Z,3.60
2022-11-05T10:53:18.422Z,3.93
2022-11-05T10:56:04.489Z,3.30
2022-11-05T10:58:56.164Z,3.70
2022-11-05T11:01:42.227Z,3.60
2022-11-05T11:04:36.520Z,3.40
2022-11-05T11:07:27.943Z,3.30
2022-11-05T11:10:23.145Z,3.60
2022-11-05T11:13:29.657Z,3.00
2022-11-05T11:16:20.334Z,3.20
2022-11-05T11:19:25.136Z,3.47
2022-11-05T11:22:18.477Z,3.07
2022-11-05T11:25:24.093Z,3.33
2022-11-05T11:28:36.074Z,3.60
2022-11-05T11:31:25.575Z,4.20
2022-11-05T11:34:29.370Z,4.10
2022-11-05T11:40:19.554Z,3.97
2022-11-05T11:43:15.361Z,4.33
2022-11-05T11:46:07.713Z,4.00
2022-11-05T11:48:55.454Z,4.17
2022-11-05T11:51:49.675Z,4.10
2022-11-05T11:54:35.867Z,4.17
2022-11-05T11:57:27.271Z,4.67
2022-11-05T12:00:13.350Z,3.40
2022-11-05T12:03:31.034Z,3.33
2022-11-05T12:06:26.868Z,3.23
2022-11-05T12:09:16.629Z,3.47
2022-11-05T12:12:11.547Z,3.13
2022-11-05T12:14:57.298Z,3.50
2022-11-05T12:17:50.674Z,3.30
2022-11-05T12:20:48.385Z,2.92
2022-11-05T12:23:57.260Z,3.33
2022-11-05T12:26:57.532Z,3.43
2022-11-05T12:29:53.062Z,3.07
2022-11-05T12:32:56.075Z,3.30
2022-11-05T12:36:15.632Z,3.00
2022-11-05T12:39:07.289Z,3.30
2022-11-05T12:42:21.780Z,3.03
2022-11-05T12:45:22.648Z,2.93
2022-11-05T12:48:50.563Z,2.67
2022-11-05T12:51:51.478Z,2.27
2022-11-05T12:54:44.345Z,2.83
2022-11-05T12:57:32.169Z,3.10
2022-11-05T13:00:26.026Z,2.90
2022-11-05T13:03:17.399Z,3.13
2022-11-05T13:06:12.161Z,2.77
2022-11-05T13:09:12.694Z,3.30
2022-11-05T13:12:03.419Z,2.60
2022-11-05T13:14:56.468Z,2.90
2022-11-05T13:18:20.476Z,2.75
2022-11-05T13:21:08.757Z,3.05
2022-11-05T13:24:12.721Z,3.13
2022-11-05T13:27:19.686Z,3.23
2022-11-05T13:30:07.478Z,2.70
2022-11-05T13:33:10.661Z,2.93
2022-11-05T13:36:34.538Z,3.10
2022-11-05T13:39:26.490Z,2.87
2022-11-05T13:42:29.992Z,3.20
2022-11-05T13:48:48.132Z,3.03
2022-11-05T13:51:45.878Z,2.70
2022-11-05T13:54:33.449Z,2.40
2022-11-05T13:57:22.031Z,2.50
2022-11-05T14:00:24.450Z,2.73
2022-11-05T14:03:21.590Z,3.00
2022-11-05T14:06:10.278Z,2.30
2022-11-05T14:09:02.806Z,2.67
2022-11-05T14:11:52.766Z,2.75
2022-11-05T14:14:48.091Z,3.10
2022-11-05T14:17:56.465Z,3.10
2022-11-05T14:20:58.349Z,2.77
2022-11-05T14:23:51.272Z,2.70
2022-11-05T14:26:36.668Z,2.75
2022-11-05T14:29:24.052Z,2.43
2022-11-05T14:32:18.852Z,2.57
2022-11-05T14:35:16.117Z,2.50
2022-11-05T14:38:02.549Z,3.07
2022-11-05T14:40:48.674Z,2.30
2022-11-05T14:43:36.204Z,2.90
2022-11-05T14:46:22.040Z,2.33
2022-11-05T14:49:17.593Z,2.90
2022-11-05T14:52:10.080Z,2.20
2022-11-05T14:54:58.549Z,2.58
2022-11-05T14:58:02.537Z,2.67
2022-11-05T15:00:48.704Z,1.93
2022-11-05T15:03:46.383Z,2.70
2022-11-05T15:06:36.553Z,2.40
2022-11-05T15:09:29.733Z,2.73
2022-11-05T15:12:34.626Z,2.67
2022-11-05T15:15:27.850Z,2.10
2022-11-05T15:18:20.898Z,2.22
2022-11-05T15:21:10.708Z,2.47
2022-11-05T15:23:56.987Z,1.77
2022-11-05T15:27:16.372Z,1.87
2022-11-05T15:30:18.870Z,1.97
2022-11-05T15:33:20.796Z,2.33
2022-11-05T15:36:29.661Z,2.53
2022-11-05T15:39:42.865Z,2.50
2022-11-05T15:42:28.476Z,2.50
2022-11-05T15:45:20.822Z,2.20
2022-11-05T15:48:19.776Z,3.83
2022-11-05T15:51:05.798Z,4.77
2022-11-05T15:56:58.984Z,4.23
2022-11-05T15:59:47.135Z,4.70
2022-11-05T16:02:35.128Z,3.60
2022-11-05T16:05:22.021Z,3.77
2022-11-05T16:08:18.958Z,3.17
2022-11-05T16:11:04.776Z,2.83
2022-11-05T16:13:51.798Z,3.00
2022-11-05T16:16:38.169Z,2.70
2022-11-05T16:19:42.602Z,2.57
2022-11-05T16:22:45.474Z,2.67
2022-11-05T16:25:42.744Z,3.03
2022-11-05T16:28:30.188Z,2.80
2022-11-05T16:31:15.859Z,2.83
2022-11-05T16:34:01.570Z,2.43
2022-11-05T16:36:47.556Z,2.40
2022-11-05T16:39:33.161Z,2.20
2022-11-05T16:42:24.893Z,2.67
2022-11-05T16:45:13.481Z,2.67
2022-11-05T16:47:59.175Z,2.70
2022-11-05T16:50:45.435Z,2.93
2022-11-05T16:53:30.656Z,2.60
2022-11-05T16:56:19.444Z,2.57
2022-11-05T16:59:04.739Z,2.90
2022-11-05T17:01:55.502Z,2.90
2022-11-05T17:04:41.108Z,2.40
2022-11-05T17:07:26.373Z,2.47
2022-11-05T17:10:11.803Z,2.73
2022-11-05T17:12:57.620Z,3.77
2022-11-05T17:15:45.047Z,3.77
2022-11-05T17:18:30.533Z,3.37
2022-11-05T17:21:16.304Z,3.53
2022-11-05T17:24:02.002Z,4.00
2022-11-05T17:26:48.046Z,3.73
2022-11-05T17:29:33.919Z,4.30
2022-11-05T17:32:19.750Z,4.37
2022-11-05T17:35:08.098Z,3.87
2022-11-05T17:37:53.940Z,3.77
2022-11-05T17:40:40.849Z,4.33
2022-11-05T17:43:26.312Z,4.13
2022-11-05T17:46:14.886Z,4.13
2022-11-05T17:49:00.684Z,4.33
2022-11-05T17:51:46.563Z,4.50
2022-11-05T17:54:31.916Z,4.00
2022-11-05T17:57:17.847Z,4.87
2022-11-05T18:00:03.960Z,4.53
2022-11-05T18:02:56.225Z,5.57
2022-11-05T18:05:44.467Z,4.97
2022-11-05T18:08:30.619Z,5.20
2022-11-05T18:11:17.480Z,5.60
2022-11-05T18:14:03.964Z,5.50
2022-11-05T18:16:50.615Z,5.87
2022-11-05T18:19:38.535Z,6.00
2022-11-05T18:22:51.112Z,5.77
2022-11-05T18:25:36.727Z,5.90
2022-11-05T18:28:23.390Z,6.90
2022-11-05T18:31:21.335Z,6.83
2022-11-05T18:34:08.146Z,7.57
2022-11-05T18:36:56.676Z,7.63
2022-11-05T18:39:42.461Z,7.03
2022-11-05T18:42:28.173Z,6.50
2022-11-05T18:45:13.490Z,5.87
2022-11-05T18:48:02.902Z,5.47
2022-11-05T18:50:49.534Z,6.27
2022-11-05T18:53:35.075Z,6.30
2022-11-05T18:56:20.418Z,6.80
2022-11-05T18:59:35.125Z,5.80
2022-11-05T19:02:15.708Z,6.00
2022-11-05T19:08:08.207Z,5.53
2022-11-05T19:10:54.626Z,5.40
2022-11-05T19:13:40.476Z,5.53
2022-11-05T19:16:29.239Z,6.37
2022-11-05T19:19:14.942Z,7.30
2022-11-05T19:22:00.149Z,5.60
2022-11-05T19:24:45.611Z,5.80
2022-11-05T19:27:31.272Z,6.17
2022-11-05T19:30:16.636Z,6.00
2022-11-05T19:33:02.586Z,5.77
2022-11-05T19:35:47.598Z,4.97
2022-11-05T19:38:33.371Z,5.33
2022-11-05T19:41:19.401Z,5.40
2022-11-05T19:44:05.058Z,6.00
2022-11-05T19:46:50.491Z,5.57
2022-11-05T19:49:35.819Z,5.47
2022-11-05T19:52:21.434Z,5.40
2022-11-05T19:55:11.957Z,5.10
2022-11-05T19:57:57.776Z,5.30
2022-11-05T20:00:43.430Z,5.20
2022-11-05T20:03:28.783Z,5.13
2022-11-05T20:06:17.414Z,4.73
2022-11-05T20:09:20.999Z,5.17
2022-11-05T20:12:08.157Z,5.10
2022-11-05T20:14:53.863Z,5.20
2022-11-05T20:17:39.495Z,4.90
2022-11-05T20:20:25.546Z,5.03
2022-11-05T20:23:11.248Z,4.83
2022-11-05T20:25:59.000Z,5.03
2022-11-05T20:28:44.434Z,5.47
2022-11-05T20:31:30.817Z,6.17
2022-11-05T20:34:16.522Z,7.10
2022-11-05T20:37:03.226Z,7.03
2022-11-05T20:39:48.811Z,7.63
2022-11-05T20:42:36.028Z,9.23
2022-11-05T20:45:21.558Z,8.93
2022-11-05T20:48:07.115Z,10.30
2022-11-05T20:50:53.621Z,10.90
2022-11-05T20:53:39.548Z,11.53
2022-11-05T20:56:28.231Z,11.70
2022-11-05T20:59:14.100Z,11.80
2022-11-05T21:01:59.565Z,12.50
2022-11-05T21:04:45.825Z,11.27
2022-11-05T21:07:31.347Z,12.03
2022-11-05T21:10:16.927Z,11.27
2022-11-05T21:13:02.275Z,11.40
2022-11-05T21:15:50.207Z,11.03
2022-11-05T21:18:38.930Z,10.83
2022-11-05T21:21:24.277Z,10.00
2022-11-05T21:24:09.466Z,10.13
2022-11-05T21:26:55.130Z,10.40
2022-11-05T21:29:40.640Z,9.67
2022-11-05T21:32:26.194Z,10.30
2022-11-05T21:35:12.323Z,9.77
2022-11-05T21:37:57.640Z,9.67
2022-11-05T21:40:43.224Z,10.60
2022-11-05T21:43:29.451Z,9.73
2022-11-05T21:46:14.773Z,9.53
2022-11-05T21:48:59.949Z,9.77
2022-11-05T21:52:03.815Z,9.50
2022-11-05T21:55:07.654Z,10.37
2022-11-05T21:58:11.563Z,9.23
2022-11-05T22:00:57.298Z,8.70
2022-11-05T22:03:42.459Z,9.03
2022-11-05T22:06:28.029Z,8.53
2022-11-05T22:09:13.116Z,9.33
2022-11-05T22:11:58.979Z,9.33
2022-11-05T22:14:44.460Z,9.33
2022-11-05T22:17:29.598Z,8.57
2022-11-05T22:20:16.086Z,8.83
2022-11-05T22:23:01.397Z,8.50
2022-11-05T22:25:46.716Z,8.30
2022-11-05T22:28:31.994Z,8.37
2022-11-05T22:31:17.525Z,8.50
2022-11-05T22:34:03.097Z,8.30
2022-11-05T22:36:48.726Z,8.17
2022-11-05T22:39:34.112Z,8.03
2022-11-05T22:42:19.318Z,8.20
2022-11-05T22:45:05.147Z,8.53
2022-11-05T22:47:50.351Z,8.30
2022-11-05T22:50:35.525Z,8.00
2022-11-05T22:53:20.780Z,8.40
2022-11-05T22:56:11.865Z,8.37
2022-11-05T22:58:58.162Z,8.20
2022-11-05T23:01:45.043Z,8.20
2022-11-05T23:04:30.623Z,8.00
2022-11-05T23:07:36.510Z,7.80
2022-11-05T23:10:40.402Z,7.33
2022-11-05T23:13:25.795Z,7.40
2022-11-05T23:16:29.634Z,7.80
2022-11-05T23:19:33.393Z,7.83
2022-11-05T23:22:42.516Z,7.80
2022-11-05T23:25:27.896Z,7.83
2022-11-05T23:28:13.960Z,7.07
2022-11-05T23:31:34.628Z,6.70
2022-11-05T23:34:19.998Z,7.13
2022-11-05T23:37:24.137Z,6.83
2022-11-05T23:40:14.885Z,6.73
2022-11-05T23:43:18.638Z,6.73
2022-11-05T23:46:22.561Z,7.07
2022-11-05T23:49:07.749Z,6.63
2022-11-05T23:51:53.263Z,6.50
2022-11-05T23:54:38.329Z,6.40
2022-11-05T23:57:23.621Z,7.00
